createdAt,value
2023-02-14T00:06:47.257Z,99
2023-02-14T00:16:47.278Z,99
2023-02-14T00:26:47.314Z,99
2023-02-14T00:37:04.527Z,99
2023-02-14T00:46:47.451Z,99
2023-02-14T00:56:47.322Z,99
2023-02-14T01:07:01.685Z,99
2023-02-14T01:16:47.434Z,99
2023-02-14T01:26:47.345Z,99
2023-02-14T01:37:07.233Z,99
2023-02-14T01:46:47.438Z,99
2023-02-14T01:56:47.451Z,99
2023-02-14T02:07:08.946Z,99
2023-02-14T02:16:47.609Z,99
2023-02-14T02:26:47.477Z,99
2023-02-14T02:37:09.191Z,99
2023-02-14T02:46:47.539Z,99
2023-02-14T02:56:47.588Z,99
2023-02-14T03:07:11.511Z,99
2023-02-14T03:16:47.640Z,99
2023-02-14T03:26:47.596Z,99
2023-02-14T03:37:11.110Z,99
2023-02-14T03:46:47.693Z,99
2023-02-14T03:57:00.707Z,99
2023-02-14T04:02:36.758Z,99
2023-02-14T04:06:47.704Z,99
2023-02-14T04:17:00.311Z,99
2023-02-14T04:27:08.930Z,99
2023-02-14T04:31:29.326Z,99
2023-02-14T04:36:47.776Z,99
2023-02-14T04:47:02.489Z,99
2023-02-14T04:56:47.806Z,99
2023-02-14T05:06:48.615Z,99
2023-02-14T05:17:08.974Z,99
2023-02-14T05:26:47.815Z,99
2023-02-14T05:36:47.916Z,99
2023-02-14T05:47:18.340Z,99
2023-02-14T05:56:48.059Z,99
2023-02-14T06:06:47.898Z,99
2023-02-14T06:16:48.012Z,99
2023-02-14T06:26:47.972Z,99
2023-02-14T06:36:47.985Z,99
2023-02-14T06:46:47.997Z,99
2023-02-14T06:56:48.004Z,99
2023-02-14T07:06:48.013Z,99
2023-02-14T07:16:48.060Z,99
2023-02-14T07:26:48.189Z,99
2023-02-14T07:36:48.108Z,99
2023-02-14T07:46:49.842Z,99
2023-02-14T07:56:50.350Z,99
2023-02-14T08:06:51.722Z,99
2023-02-14T08:16:51.810Z,99
2023-02-14T08:27:03.841Z,99
2023-02-14T08:36:59.885Z,99
2023-02-14T08:47:00.597Z,99
2023-02-14T08:57:02.683Z,99
2023-02-14T09:07:02.886Z,99
2023-02-14T09:17:02.757Z,99
2023-02-14T09:27:02.651Z,99
2023-02-14T09:37:04.356Z,99
2023-02-14T09:46:48.870Z,99
2023-02-14T09:56:52.308Z,99
2023-02-14T10:06:48.936Z,99
2023-02-14T10:16:49.057Z,99
2023-02-14T10:27:10.340Z,99
2023-02-14T10:36:49.019Z,99
2023-02-14T10:46:49.003Z,99
2023-02-14T10:57:25.259Z,99
2023-02-14T11:07:03.691Z,99
2023-02-14T11:16:49.692Z,99
2023-02-14T11:26:49.522Z,99
2023-02-14T11:36:56.461Z,99
2023-02-14T11:46:54.161Z,99
2023-02-14T11:56:49.154Z,99
2023-02-14T12:03:31.359Z,99
2023-02-14T12:06:49.186Z,99
2023-02-14T12:16:49.214Z,99
2023-02-14T12:26:49.252Z,99
2023-02-14T12:37:24.205Z,97
2023-02-14T12:46:49.827Z,96
2023-02-14T12:56:49.803Z,95
2023-02-14T13:06:52.594Z,94
2023-02-14T13:16:57.297Z,93
2023-02-14T13:27:01.000Z,93
2023-02-14T13:36:58.289Z,92
2023-02-14T13:46:50.769Z,92
2023-02-14T13:56:50.496Z,91
2023-02-14T14:06:50.919Z,91
2023-02-14T14:16:50.905Z,91
2023-02-14T14:26:50.462Z,91
2023-02-14T14:36:51.605Z,91
2023-02-14T14:45:30.194Z,91
2023-02-14T14:46:50.014Z,92
2023-02-14T14:56:50.042Z,94
2023-02-14T15:06:52.678Z,95
2023-02-14T15:16:50.139Z,95
2023-02-14T15:26:52.003Z,96
2023-02-14T15:29:50.605Z,96
2023-02-14T15:36:54.798Z,99
2023-02-14T15:46:50.190Z,99
2023-02-14T15:56:50.165Z,99
2023-02-14T16:06:58.916Z,99
2023-02-14T16:16:53.685Z,99
2023-02-14T16:26:55.982Z,99
2023-02-14T16:36:58.208Z,99
2023-02-14T16:46:50.282Z,99
2023-02-14T16:56:53.745Z,99
2023-02-14T17:07:17.378Z,99
2023-02-14T17:16:50.418Z,99
2023-02-14T17:26:50.449Z,99
2023-02-14T17:36:50.463Z,99
2023-02-14T17:46:50.518Z,99
2023-02-14T17:56:50.457Z,99
2023-02-14T18:06:50.561Z,99
2023-02-14T18:16:51.423Z,99
2023-02-14T18:26:51.317Z,99
2023-02-14T18:36:53.038Z,99
2023-02-14T18:46:51.209Z,99
2023-02-14T18:56:51.272Z,99
2023-02-14T19:06:56.527Z,99
2023-02-14T19:16:52.207Z,99
2023-02-14T19:26:52.714Z,99
2023-02-14T19:36:52.720Z,99
2023-02-14T19:46:51.843Z,99
2023-02-14T19:56:54.348Z,99
2023-02-14T20:06:51.751Z,99
2023-02-14T20:16:51.679Z,99
2023-02-14T20:26:54.554Z,99
2023-02-14T20:36:52.372Z,99
2023-02-14T20:46:51.633Z,99
2023-02-14T20:56:52.618Z,99
2023-02-14T21:06:51.777Z,99
2023-02-14T21:16:51.612Z,99
2023-02-14T21:26:51.779Z,99
2023-02-14T21:36:51.605Z,99
2023-02-14T21:46:55.384Z,99
2023-02-14T21:56:52.330Z,99
2023-02-14T22:06:51.780Z,99
2023-02-14T22:16:51.938Z,99
2023-02-14T22:27:06.074Z,99
2023-02-14T22:31:28.286Z,99
2023-02-14T22:36:51.006Z,99
2023-02-14T22:46:51.063Z,99
2023-02-14T22:56:56.030Z,99
2023-02-14T23:06:51.100Z,99
2023-02-14T23:16:51.067Z,99
2023-02-14T23:26:56.115Z,99
2023-02-14T23:36:56.099Z,99
2023-02-14T23:46:51.139Z,99
2023-02-14T23:56:51.150Z,99
